sensor_id;sensor_type;location;lat;lon;timestamp;temperature;humidity
20833;DHT22;56075;51.264;7.150;2022-10-17T00:02:13;16.90;99.90
20833;DHT22;56075;51.264;7.150;2022-10-17T00:04:44;17.60;99.90
20833;DHT22;56075;51.264;7.150;2022-10-17T00:07:16;16.00;99.90
20833;DHT22;56075;51.264;7.150;2022-10-17T00:09:47;16.00;99.90
20833;DHT22;56075;51.264;7.150;2022-10-17T00:12:18;16.00;99.90
20833;DHT22;56075;51.264;7.150;2022-10-17T00:14:49;16.60;99.90
20833;DHT22;56075;51.264;7.150;2022-10-17T00:17:20;16.20;99.90
20833;DHT22;56075;51.264;7.150;2022-10-17T00:19:51;15.90;99.90
20833;DHT22;56075;51.264;7.150;2022-10-17T00:22:22;16.40;99.90
20833;DHT22;56075;51.264;7.150;2022-10-17T00:24:53;16.10;99.90
20833;DHT22;56075;51.264;7.150;2022-10-17T00:27:24;16.20;99.90
20833;DHT22;56075;51.264;7.150;2022-10-17T00:29:55;16.80;99.90
20833;DHT22;56075;51.264;7.150;2022-10-17T00:32:26;16.30;99.90
20833;DHT22;56075;51.264;7.150;2022-10-17T00:34:58;18.00;99.90
20833;DHT22;56075;51.264;7.150;2022-10-17T00:37:30;17.10;99.90
20833;DHT22;56075;51.264;7.150;2022-10-17T00:40:02;16.10;99.90
20833;DHT22;56075;51.264;7.150;2022-10-17T00:42:34;16.30;99.90
20833;DHT22;56075;51.264;7.150;2022-10-17T00:45:25;16.20;99.90
20833;DHT22;56075;51.264;7.150;2022-10-17T00:48:05;16.50;99.90
20833;DHT22;56075;51.264;7.150;2022-10-17T00:50:42;16.30;99.90
20833;DHT22;56075;51.264;7.150;2022-10-17T00:53:14;17.70;99.90
20833;DHT22;56075;51.264;7.150;2022-10-17T00:55:50;16.40;99.90
20833;DHT22;56075;51.264;7.150;2022-10-17T00:58:24;16.40;99.90
20833;DHT22;56075;51.264;7.150;2022-10-17T01:00:55;18.20;99.90
20833;DHT22;56075;51.264;7.150;2022-10-17T01:03:26;18.40;99.90
20833;DHT22;56075;51.264;7.150;2022-10-17T01:05:58;16.70;99.90
20833;DHT22;56075;51.264;7.150;2022-10-17T01:08:29;16.30;99.90
20833;DHT22;56075;51.264;7.150;2022-10-17T01:17:04;16.40;99.90
20833;DHT22;56075;51.264;7.150;2022-10-17T01:22:46;16.20;99.90
20833;DHT22;56075;51.264;7.150;2022-10-17T01:31:12;16.50;99.90
20833;DHT22;56075;51.264;7.150;2022-10-17T01:33:58;17.30;99.90
20833;DHT22;56075;51.264;7.150;2022-10-17T01:36:46;16.20;99.90
20833;DHT22;56075;51.264;7.150;2022-10-17T01:39:41;16.20;99.90
20833;DHT22;56075;51.264;7.150;2022-10-17T01:42:22;17.90;99.90
20833;DHT22;56075;51.264;7.150;2022-10-17T01:47:37;16.20;99.90
20833;DHT22;56075;51.264;7.150;2022-10-17T01:50:15;16.30;99.90
20833;DHT22;56075;51.264;7.150;2022-10-17T01:52:58;16.30;99.90
20833;DHT22;56075;51.264;7.150;2022-10-17T01:55:33;16.30;99.90
20833;DHT22;56075;51.264;7.150;2022-10-17T01:58:11;17.70;99.90
20833;DHT22;56075;51.264;7.150;2022-10-17T02:00:44;16.30;99.90
20833;DHT22;56075;51.264;7.150;2022-10-17T02:03:19;16.30;99.90
20833;DHT22;56075;51.264;7.150;2022-10-17T02:05:51;16.40;99.90
20833;DHT22;56075;51.264;7.150;2022-10-17T02:08:27;16.30;99.90
20833;DHT22;56075;51.264;7.150;2022-10-17T02:11:04;16.20;99.90
20833;DHT22;56075;51.264;7.150;2022-10-17T02:14:14;16.60;99.90
20833;DHT22;56075;51.264;7.150;2022-10-17T02:22:55;16.50;99.90
20833;DHT22;56075;51.264;7.150;2022-10-17T02:28:17;16.90;99.90
20833;DHT22;56075;51.264;7.150;2022-10-17T02:31:07;16.50;99.90
20833;DHT22;56075;51.264;7.150;2022-10-17T02:33:48;15.10;99.90
20833;DHT22;56075;51.264;7.150;2022-10-17T02:36:24;16.60;99.90
20833;DHT22;56075;51.264;7.150;2022-10-17T02:38:58;16.40;99.90
20833;DHT22;56075;51.264;7.150;2022-10-17T02:41:33;16.40;99.90
20833;DHT22;56075;51.264;7.150;2022-10-17T02:44:06;17.60;99.90
20833;DHT22;56075;51.264;7.150;2022-10-17T02:46:38;17.20;99.90
20833;DHT22;56075;51.264;7.150;2022-10-17T02:49:27;16.70;99.90
20833;DHT22;56075;51.264;7.150;2022-10-17T02:52:12;16.50;99.90
20833;DHT22;56075;51.264;7.150;2022-10-17T02:54:50;16.50;99.90
20833;DHT22;56075;51.264;7.150;2022-10-17T03:00:00;16.40;99.90
20833;DHT22;56075;51.264;7.150;2022-10-17T03:02:48;16.60;99.90
20833;DHT22;56075;51.264;7.150;2022-10-17T03:05:21;16.20;99.90
20833;DHT22;56075;51.264;7.150;2022-10-17T03:07:53;16.50;99.90
20833;DHT22;56075;51.264;7.150;2022-10-17T03:10:24;16.30;99.90
20833;DHT22;56075;51.264;7.150;2022-10-17T03:12:55;16.30;99.90
20833;DHT22;56075;51.264;7.150;2022-10-17T03:15:27;17.90;99.90
20833;DHT22;56075;51.264;7.150;2022-10-17T03:17:59;16.40;99.90
20833;DHT22;56075;51.264;7.150;2022-10-17T03:20:30;16.30;99.90
20833;DHT22;56075;51.264;7.150;2022-10-17T03:23:01;16.20;99.90
20833;DHT22;56075;51.264;7.150;2022-10-17T03:25:33;16.30;99.90
20833;DHT22;56075;51.264;7.150;2022-10-17T03:28:04;16.30;99.90
20833;DHT22;56075;51.264;7.150;2022-10-17T03:30:37;16.20;99.90
20833;DHT22;56075;51.264;7.150;2022-10-17T03:33:08;18.10;99.90
20833;DHT22;56075;51.264;7.150;2022-10-17T03:35:39;16.30;99.90
20833;DHT22;56075;51.264;7.150;2022-10-17T03:38:12;17.60;99.90
20833;DHT22;56075;51.264;7.150;2022-10-17T03:40:43;18.50;99.90
20833;DHT22;56075;51.264;7.150;2022-10-17T03:43:14;16.20;99.90
20833;DHT22;56075;51.264;7.150;2022-10-17T03:45:45;17.70;99.90
20833;DHT22;56075;51.264;7.150;2022-10-17T03:48:16;16.30;99.90
20833;DHT22;56075;51.264;7.150;2022-10-17T03:50:48;16.30;99.90
20833;DHT22;56075;51.264;7.150;2022-10-17T03:53:19;16.30;99.90
20833;DHT22;56075;51.264;7.150;2022-10-17T03:55:50;16.10;99.90
20833;DHT22;56075;51.264;7.150;2022-10-17T03:58:22;17.60;99.90
20833;DHT22;56075;51.264;7.150;2022-10-17T04:00:54;17.60;99.90
20833;DHT22;56075;51.264;7.150;2022-10-17T04:03:25;16.30;99.90
20833;DHT22;56075;51.264;7.150;2022-10-17T04:05:59;17.20;99.90
20833;DHT22;56075;51.264;7.150;2022-10-17T04:08:33;16.00;99.90
20833;DHT22;56075;51.264;7.150;2022-10-17T04:11:21;16.20;99.90
20833;DHT22;56075;51.264;7.150;2022-10-17T04:13:54;17.10;99.90
20833;DHT22;56075;51.264;7.150;2022-10-17T04:16:26;17.30;99.90
20833;DHT22;56075;51.264;7.150;2022-10-17T04:19:03;17.50;99.90
20833;DHT22;56075;51.264;7.150;2022-10-17T04:21:40;16.80;99.90
20833;DHT22;56075;51.264;7.150;2022-10-17T04:24:12;17.90;99.90
20833;DHT22;56075;51.264;7.150;2022-10-17T04:26:58;16.30;99.90
20833;DHT22;56075;51.264;7.150;2022-10-17T04:29:32;16.40;99.90
20833;DHT22;56075;51.264;7.150;2022-10-17T04:32:21;16.30;99.90
20833;DHT22;56075;51.264;7.150;2022-10-17T04:35:16;17.70;99.90
20833;DHT22;56075;51.264;7.150;2022-10-17T04:37:51;16.60;99.90
20833;DHT22;56075;51.264;7.150;2022-10-17T04:40:24;16.50;99.90
20833;DHT22;56075;51.264;7.150;2022-10-17T04:42:56;17.70;99.90
20833;DHT22;56075;51.264;7.150;2022-10-17T04:45:38;16.60;99.90
20833;DHT22;56075;51.264;7.150;2022-10-17T04:48:10;16.60;99.90
20833;DHT22;56075;51.264;7.150;2022-10-17T04:50:41;18.20;99.90
20833;DHT22;56075;51.264;7.150;2022-10-17T04:53:35;16.60;99.90
20833;DHT22;56075;51.264;7.150;2022-10-17T04:56:09;17.50;99.90
20833;DHT22;56075;51.264;7.150;2022-10-17T04:58:42;16.60;99.90
20833;DHT22;56075;51.264;7.150;2022-10-17T05:01:17;17.10;99.90
20833;DHT22;56075;51.264;7.150;2022-10-17T05:03:52;17.70;99.90
20833;DHT22;56075;51.264;7.150;2022-10-17T05:06:25;17.40;99.90
20833;DHT22;56075;51.264;7.150;2022-10-17T05:09:19;16.30;99.90
20833;DHT22;56075;51.264;7.150;2022-10-17T05:11:50;18.20;99.90
20833;DHT22;56075;51.264;7.150;2022-10-17T05:14:22;18.30;99.90
20833;DHT22;56075;51.264;7.150;2022-10-17T05:16:54;16.60;99.90
20833;DHT22;56075;51.264;7.150;2022-10-17T05:19:25;17.10;99.90
20833;DHT22;56075;51.264;7.150;2022-10-17T05:21:57;19.40;99.90
20833;DHT22;56075;51.264;7.150;2022-10-17T05:24:28;16.60;99.90
20833;DHT22;56075;51.264;7.150;2022-10-17T05:26:59;16.70;99.90
20833;DHT22;56075;51.264;7.150;2022-10-17T05:29:30;17.80;99.90
20833;DHT22;56075;51.264;7.150;2022-10-17T05:32:10;16.30;99.90
20833;DHT22;56075;51.264;7.150;2022-10-17T05:34:42;16.60;99.90
20833;DHT22;56075;51.264;7.150;2022-10-17T05:37:13;16.70;99.90
20833;DHT22;56075;51.264;7.150;2022-10-17T05:39:47;16.80;99.90
20833;DHT22;56075;51.264;7.150;2022-10-17T05:42:18;16.90;99.90
20833;DHT22;56075;51.264;7.150;2022-10-17T05:44:51;17.60;99.90
20833;DHT22;56075;51.264;7.150;2022-10-17T05:47:23;16.60;99.90
20833;DHT22;56075;51.264;7.150;2022-10-17T05:49:55;16.20;99.90
20833;DHT22;56075;51.264;7.150;2022-10-17T05:52:36;16.50;99.90
20833;DHT22;56075;51.264;7.150;2022-10-17T05:55:13;17.30;99.90
20833;DHT22;56075;51.264;7.150;2022-10-17T05:57:45;17.50;99.90
20833;DHT22;56075;51.264;7.150;2022-10-17T06:00:21;16.70;99.90
20833;DHT22;56075;51.264;7.150;2022-10-17T06:03:00;17.80;99.90
20833;DHT22;56075;51.264;7.150;2022-10-17T06:05:34;18.60;99.90
20833;DHT22;56075;51.264;7.150;2022-10-17T06:08:05;18.30;99.90
20833;DHT22;56075;51.264;7.150;2022-10-17T06:10:39;16.60;99.90
20833;DHT22;56075;51.264;7.150;2022-10-17T06:13:10;16.70;99.90
20833;DHT22;56075;51.264;7.150;2022-10-17T06:15:42;16.70;99.90
20833;DHT22;56075;51.264;7.150;2022-10-17T06:18:14;16.80;99.90
20833;DHT22;56075;51.264;7.150;2022-10-17T06:20:45;17.80;99.90
20833;DHT22;56075;51.264;7.150;2022-10-17T06:23:18;16.80;99.90
20833;DHT22;56075;51.264;7.150;2022-10-17T06:26:05;16.90;99.90
20833;DHT22;56075;51.264;7.150;2022-10-17T06:28:37;16.60;99.90
20833;DHT22;56075;51.264;7.150;2022-10-17T06:31:12;16.90;99.90
20833;DHT22;56075;51.264;7.150;2022-10-17T06:33:45;16.70;99.90
20833;DHT22;56075;51.264;7.150;2022-10-17T06:36:17;17.60;99.90
20833;DHT22;56075;51.264;7.150;2022-10-17T06:38:49;16.70;99.90
20833;DHT22;56075;51.264;7.150;2022-10-17T06:41:28;17.00;99.90
20833;DHT22;56075;51.264;7.150;2022-10-17T06:43:59;16.80;99.90
20833;DHT22;56075;51.264;7.150;2022-10-17T06:46:49;17.00;99.90
20833;DHT22;56075;51.264;7.150;2022-10-17T06:49:21;16.80;99.90
20833;DHT22;56075;51.264;7.150;2022-10-17T06:51:55;16.90;99.90
20833;DHT22;56075;51.264;7.150;2022-10-17T06:54:35;17.00;99.90
20833;DHT22;56075;51.264;7.150;2022-10-17T06:57:12;17.00;99.90
20833;DHT22;56075;51.264;7.150;2022-10-17T07:00:03;17.00;99.90
20833;DHT22;56075;51.264;7.150;2022-10-17T07:02:43;16.90;99.90
20833;DHT22;56075;51.264;7.150;2022-10-17T07:05:14;17.00;99.90
20833;DHT22;56075;51.264;7.150;2022-10-17T07:07:45;17.00;99.90
20833;DHT22;56075;51.264;7.150;2022-10-17T07:10:17;17.00;99.90
20833;DHT22;56075;51.264;7.150;2022-10-17T07:12:48;17.10;99.90
20833;DHT22;56075;51.264;7.150;2022-10-17T07:15:19;16.90;99.90
20833;DHT22;56075;51.264;7.150;2022-10-17T07:17:50;16.90;99.90
20833;DHT22;56075;51.264;7.150;2022-10-17T07:20:23;18.70;99.90
20833;DHT22;56075;51.264;7.150;2022-10-17T07:22:55;19.70;99.90
20833;DHT22;56075;51.264;7.150;2022-10-17T07:25:26;18.70;99.90
20833;DHT22;56075;51.264;7.150;2022-10-17T07:28:03;19.20;99.90
20833;DHT22;56075;51.264;7.150;2022-10-17T07:30:36;17.60;99.90
20833;DHT22;56075;51.264;7.150;2022-10-17T07:33:12;17.50;99.90
20833;DHT22;56075;51.264;7.150;2022-10-17T07:35:43;17.60;99.90
20833;DHT22;56075;51.264;7.150;2022-10-17T07:38:15;17.40;99.90
20833;DHT22;56075;51.264;7.150;2022-10-17T07:40:53;17.40;99.90
20833;DHT22;56075;51.264;7.150;2022-10-17T07:43:25;17.80;99.90
20833;DHT22;56075;51.264;7.150;2022-10-17T07:45:59;17.50;99.90
20833;DHT22;56075;51.264;7.150;2022-10-17T07:48:33;17.90;99.90
20833;DHT22;56075;51.264;7.150;2022-10-17T07:51:06;17.80;99.90
20833;DHT22;56075;51.264;7.150;2022-10-17T07:53:38;18.00;99.90
20833;DHT22;56075;51.264;7.150;2022-10-17T07:56:10;18.10;99.90
20833;DHT22;56075;51.264;7.150;2022-10-17T07:58:41;19.60;99.90
20833;DHT22;56075;51.264;7.150;2022-10-17T08:01:13;18.10;99.90
20833;DHT22;56075;51.264;7.150;2022-10-17T08:03:45;19.30;99.90
20833;DHT22;56075;51.264;7.150;2022-10-17T08:06:17;18.10;99.90
20833;DHT22;56075;51.264;7.150;2022-10-17T08:08:48;19.10;99.90
20833;DHT22;56075;51.264;7.150;2022-10-17T08:11:19;18.40;99.90
20833;DHT22;56075;51.264;7.150;2022-10-17T08:13:52;18.00;99.90
20833;DHT22;56075;51.264;7.150;2022-10-17T08:16:23;18.30;99.90
20833;DHT22;56075;51.264;7.150;2022-10-17T08:18:55;18.30;99.90
20833;DHT22;56075;51.264;7.150;2022-10-17T08:21:27;18.30;99.90
20833;DHT22;56075;51.264;7.150;2022-10-17T08:23:58;18.30;99.90
20833;DHT22;56075;51.264;7.150;2022-10-17T08:26:30;18.20;99.90
20833;DHT22;56075;51.264;7.150;2022-10-17T08:29:01;19.10;99.90
20833;DHT22;56075;51.264;7.150;2022-10-17T08:31:32;18.40;99.90
20833;DHT22;56075;51.264;7.150;2022-10-17T08:34:03;18.40;99.90
20833;DHT22;56075;51.264;7.150;2022-10-17T08:36:34;18.40;99.90
20833;DHT22;56075;51.264;7.150;2022-10-17T08:39:05;19.70;99.90
20833;DHT22;56075;51.264;7.150;2022-10-17T08:47:00;18.70;99.90
20833;DHT22;56075;51.264;7.150;2022-10-17T08:49:46;18.80;99.90
20833;DHT22;56075;51.264;7.150;2022-10-17T08:52:41;18.80;99.90
20833;DHT22;56075;51.264;7.150;2022-10-17T08:55:36;19.00;99.90
20833;DHT22;56075;51.264;7.150;2022-10-17T08:58:22;19.30;99.90
20833;DHT22;56075;51.264;7.150;2022-10-17T09:07:21;19.50;99.90
20833;DHT22;56075;51.264;7.150;2022-10-17T09:12:48;19.80;99.90
20833;DHT22;56075;51.264;7.150;2022-10-17T09:18:17;20.00;99.90
20833;DHT22;56075;51.264;7.150;2022-10-17T09:21:15;20.20;99.90
20833;DHT22;56075;51.264;7.150;2022-10-17T09:23:50;20.10;99.90
20833;DHT22;56075;51.264;7.150;2022-10-17T09:26:23;20.90;99.90
20833;DHT22;56075;51.264;7.150;2022-10-17T09:28:57;20.30;99.90
20833;DHT22;56075;51.264;7.150;2022-10-17T09:31:38;20.10;99.90
20833;DHT22;56075;51.264;7.150;2022-10-17T09:34:10;20.70;99.90
20833;DHT22;56075;51.264;7.150;2022-10-17T09:36:41;20.40;99.90
20833;DHT22;56075;51.264;7.150;2022-10-17T09:39:17;20.40;99.90
20833;DHT22;56075;51.264;7.150;2022-10-17T09:41:52;20.50;99.90
20833;DHT22;56075;51.264;7.150;2022-10-17T09:44:28;20.60;99.90
20833;DHT22;56075;51.264;7.150;2022-10-17T09:47:19;20.70;99.90
20833;DHT22;56075;51.264;7.150;2022-10-17T09:49:52;21.30;99.90
20833;DHT22;56075;51.264;7.150;2022-10-17T10:00:29;21.00;99.90
20833;DHT22;56075;51.264;7.150;2022-10-17T10:03:21;20.90;99.90
20833;DHT22;56075;51.264;7.150;2022-10-17T10:06:19;20.90;99.90
20833;DHT22;56075;51.264;7.150;2022-10-17T10:08:52;20.90;99.90
20833;DHT22;56075;51.264;7.150;2022-10-17T10:11:42;20.90;99.90
20833;DHT22;56075;51.264;7.150;2022-10-17T10:16:51;21.00;99.90
20833;DHT22;56075;51.264;7.150;2022-10-17T10:19:35;20.80;99.90
20833;DHT22;56075;51.264;7.150;2022-10-17T10:22:17;21.40;99.90
20833;DHT22;56075;51.264;7.150;2022-10-17T10:25:12;20.80;99.90
20833;DHT22;56075;51.264;7.150;2022-10-17T10:27:45;21.90;99.90
20833;DHT22;56075;51.264;7.150;2022-10-17T10:30:18;20.90;99.90
20833;DHT22;56075;51.264;7.150;2022-10-17T10:32:51;20.90;99.90
20833;DHT22;56075;51.264;7.150;2022-10-17T10:35:29;21.40;99.90
20833;DHT22;56075;51.264;7.150;2022-10-17T10:38:07;21.90;99.90
20833;DHT22;56075;51.264;7.150;2022-10-17T10:40:50;21.60;99.90
20833;DHT22;56075;51.264;7.150;2022-10-17T10:43:36;21.00;99.90
20833;DHT22;56075;51.264;7.150;2022-10-17T10:46:18;21.10;99.90
20833;DHT22;56075;51.264;7.150;2022-10-17T10:48:55;21.10;99.90
20833;DHT22;56075;51.264;7.150;2022-10-17T10:51:37;21.70;99.90
20833;DHT22;56075;51.264;7.150;2022-10-17T10:56:49;21.00;99.90
20833;DHT22;56075;51.264;7.150;2022-10-17T11:02:10;21.30;99.90
20833;DHT22;56075;51.264;7.150;2022-10-17T11:04:56;21.30;99.90
20833;DHT22;56075;51.264;7.150;2022-10-17T11:07:43;21.40;99.90
20833;DHT22;56075;51.264;7.150;2022-10-17T11:10:30;21.40;99.90
20833;DHT22;56075;51.264;7.150;2022-10-17T11:13:14;21.40;99.90
20833;DHT22;56075;51.264;7.150;2022-10-17T11:15:57;21.60;99.90
20833;DHT22;56075;51.264;7.150;2022-10-17T11:18:46;21.40;99.90
20833;DHT22;56075;51.264;7.150;2022-10-17T11:24:45;21.30;99.90
20833;DHT22;56075;51.264;7.150;2022-10-17T11:27:18;21.40;99.90
20833;DHT22;56075;51.264;7.150;2022-10-17T11:29:50;21.80;99.90
20833;DHT22;56075;51.264;7.150;2022-10-17T11:32:24;21.40;99.90
20833;DHT22;56075;51.264;7.150;2022-10-17T11:35:17;21.30;99.90
20833;DHT22;56075;51.264;7.150;2022-10-17T11:40:40;21.40;99.90
20833;DHT22;56075;51.264;7.150;2022-10-17T11:43:21;21.50;99.90
20833;DHT22;56075;51.264;7.150;2022-10-17T11:46:01;21.40;99.90
20833;DHT22;56075;51.264;7.150;2022-10-17T11:48:40;21.40;99.90
20833;DHT22;56075;51.264;7.150;2022-10-17T11:51:13;21.40;99.90
20833;DHT22;56075;51.264;7.150;2022-10-17T11:53:58;21.40;99.90
20833;DHT22;56075;51.264;7.150;2022-10-17T11:59:45;21.40;99.90
20833;DHT22;56075;51.264;7.150;2022-10-17T12:04:58;21.40;99.90
20833;DHT22;56075;51.264;7.150;2022-10-17T12:07:44;21.40;99.90
20833;DHT22;56075;51.264;7.150;2022-10-17T12:10:41;20.50;99.90
20833;DHT22;56075;51.264;7.150;2022-10-17T12:21:56;21.30;99.90
20833;DHT22;56075;51.264;7.150;2022-10-17T12:24:32;21.10;99.90
20833;DHT22;56075;51.264;7.150;2022-10-17T12:35:35;21.40;99.90
20833;DHT22;56075;51.264;7.150;2022-10-17T12:40:49;21.30;99.90
20833;DHT22;56075;51.264;7.150;2022-10-17T12:45:59;21.30;99.90
20833;DHT22;56075;51.264;7.150;2022-10-17T12:51:19;21.40;99.90
20833;DHT22;56075;51.264;7.150;2022-10-17T12:54:00;19.20;99.90
20833;DHT22;56075;51.264;7.150;2022-10-17T12:56:44;21.30;99.90
20833;DHT22;56075;51.264;7.150;2022-10-17T12:59:23;21.30;99.90
20833;DHT22;56075;51.264;7.150;2022-10-17T13:01:59;21.80;99.90
20833;DHT22;56075;51.264;7.150;2022-10-17T13:04:35;21.20;99.90
20833;DHT22;56075;51.264;7.150;2022-10-17T13:07:19;21.70;99.90
20833;DHT22;56075;51.264;7.150;2022-10-17T13:09:51;21.20;99.90
20833;DHT22;56075;51.264;7.150;2022-10-17T13:12:24;21.20;99.90
20833;DHT22;56075;51.264;7.150;2022-10-17T13:14:57;21.10;99.90
20833;DHT22;56075;51.264;7.150;2022-10-17T13:17:29;21.20;99.90
20833;DHT22;56075;51.264;7.150;2022-10-17T13:20:01;21.20;99.90
20833;DHT22;56075;51.264;7.150;2022-10-17T13:22:32;21.10;99.90
20833;DHT22;56075;51.264;7.150;2022-10-17T13:25:16;22.40;99.90
20833;DHT22;56075;51.264;7.150;2022-10-17T13:27:48;20.80;99.90
20833;DHT22;56075;51.264;7.150;2022-10-17T13:30:29;22.50;99.90
20833;DHT22;56075;51.264;7.150;2022-10-17T13:33:01;20.50;99.90
20833;DHT22;56075;51.264;7.150;2022-10-17T13:35:35;20.50;99.90
20833;DHT22;56075;51.264;7.150;2022-10-17T13:38:07;20.40;99.90
20833;DHT22;56075;51.264;7.150;2022-10-17T13:40:41;22.20;99.90
20833;DHT22;56075;51.264;7.150;2022-10-17T13:43:18;20.10;99.90
20833;DHT22;56075;51.264;7.150;2022-10-17T13:45:53;20.00;99.90
20833;DHT22;56075;51.264;7.150;2022-10-17T13:48:26;22.30;99.90
20833;DHT22;56075;51.264;7.150;2022-10-17T13:51:02;20.00;99.90
20833;DHT22;56075;51.264;7.150;2022-10-17T13:53:37;19.80;99.90
20833;DHT22;56075;51.264;7.150;2022-10-17T13:56:17;20.00;99.90
20833;DHT22;56075;51.264;7.150;2022-10-17T13:58:51;19.80;99.90
20833;DHT22;56075;51.264;7.150;2022-10-17T14:01:24;20.40;99.90
20833;DHT22;56075;51.264;7.150;2022-10-17T14:03:57;20.00;99.90
20833;DHT22;56075;51.264;7.150;2022-10-17T14:06:30;21.80;99.90
20833;DHT22;56075;51.264;7.150;2022-10-17T14:09:07;19.80;99.90
20833;DHT22;56075;51.264;7.150;2022-10-17T14:12:05;19.90;99.90
20833;DHT22;56075;51.264;7.150;2022-10-17T14:14:39;20.00;99.90
20833;DHT22;56075;51.264;7.150;2022-10-17T14:17:20;20.10;99.90
20833;DHT22;56075;51.264;7.150;2022-10-17T14:19:54;20.40;99.90
20833;DHT22;56075;51.264;7.150;2022-10-17T14:22:27;20.00;99.90
20833;DHT22;56075;51.264;7.150;2022-10-17T14:24:58;19.80;99.90
20833;DHT22;56075;51.264;7.150;2022-10-17T14:27:32;20.00;99.90
20833;DHT22;56075;51.264;7.150;2022-10-17T14:32:59;20.10;99.90
20833;DHT22;56075;51.264;7.150;2022-10-17T14:35:33;20.80;99.90
20833;DHT22;56075;51.264;7.150;2022-10-17T14:38:06;20.40;99.90
20833;DHT22;56075;51.264;7.150;2022-10-17T14:40:49;21.20;99.90
20833;DHT22;56075;51.264;7.150;2022-10-17T14:43:23;20.60;99.90
20833;DHT22;56075;51.264;7.150;2022-10-17T14:46:01;21.40;99.90
20833;DHT22;56075;51.264;7.150;2022-10-17T14:48:32;20.40;99.90
20833;DHT22;56075;51.264;7.150;2022-10-17T14:51:12;20.20;99.90
20833;DHT22;56075;51.264;7.150;2022-10-17T14:54:01;20.40;99.90
20833;DHT22;56075;51.264;7.150;2022-10-17T14:56:39;21.00;99.90
20833;DHT22;56075;51.264;7.150;2022-10-17T14:59:11;20.20;99.90
20833;DHT22;56075;51.264;7.150;2022-10-17T15:01:42;20.20;99.90
20833;DHT22;56075;51.264;7.150;2022-10-17T15:04:13;20.30;99.90
20833;DHT22;56075;51.264;7.150;2022-10-17T15:06:44;20.30;99.90
20833;DHT22;56075;51.264;7.150;2022-10-17T15:09:23;20.20;99.90
20833;DHT22;56075;51.264;7.150;2022-10-17T15:12:02;20.40;99.90
20833;DHT22;56075;51.264;7.150;2022-10-17T15:14:34;20.20;99.90
20833;DHT22;56075;51.264;7.150;2022-10-17T15:17:15;20.30;99.90
20833;DHT22;56075;51.264;7.150;2022-10-17T15:19:47;20.60;99.90
20833;DHT22;56075;51.264;7.150;2022-10-17T15:22:18;20.10;99.90
20833;DHT22;56075;51.264;7.150;2022-10-17T15:24:50;20.20;99.90
20833;DHT22;56075;51.264;7.150;2022-10-17T15:27:23;20.30;99.90
20833;DHT22;56075;51.264;7.150;2022-10-17T15:29:54;20.10;99.90
20833;DHT22;56075;51.264;7.150;2022-10-17T15:32:25;20.10;99.90
20833;DHT22;56075;51.264;7.150;2022-10-17T15:34:57;20.30;99.90
20833;DHT22;56075;51.264;7.150;2022-10-17T15:37:32;20.00;99.90
20833;DHT22;56075;51.264;7.150;2022-10-17T15:40:04;20.10;99.90
20833;DHT22;56075;51.264;7.150;2022-10-17T15:42:35;20.00;99.90
20833;DHT22;56075;51.264;7.150;2022-10-17T15:45:08;21.00;99.90
20833;DHT22;56075;51.264;7.150;2022-10-17T15:47:41;19.90;99.90
20833;DHT22;56075;51.264;7.150;2022-10-17T15:50:13;20.00;99.90
20833;DHT22;56075;51.264;7.150;2022-10-17T15:52:45;20.30;99.90
20833;DHT22;56075;51.264;7.150;2022-10-17T15:55:21;20.40;99.90
20833;DHT22;56075;51.264;7.150;2022-10-17T15:57:52;21.00;99.90
20833;DHT22;56075;51.264;7.150;2022-10-17T16:00:23;19.50;99.90
20833;DHT22;56075;51.264;7.150;2022-10-17T16:02:55;19.50;99.90
20833;DHT22;56075;51.264;7.150;2022-10-17T16:05:26;19.50;99.90
20833;DHT22;56075;51.264;7.150;2022-10-17T16:07:59;19.50;99.90
20833;DHT22;56075;51.264;7.150;2022-10-17T16:10:30;19.30;99.90
20833;DHT22;56075;51.264;7.150;2022-10-17T16:13:01;21.00;99.90
20833;DHT22;56075;51.264;7.150;2022-10-17T16:15:32;19.50;99.90
20833;DHT22;56075;51.264;7.150;2022-10-17T16:18:03;19.10;99.90
20833;DHT22;56075;51.264;7.150;2022-10-17T16:20:35;19.20;99.90
20833;DHT22;56075;51.264;7.150;2022-10-17T16:23:06;19.00;99.90
20833;DHT22;56075;51.264;7.150;2022-10-17T16:25:38;19.80;99.90
20833;DHT22;56075;51.264;7.150;2022-10-17T16:28:10;18.70;99.90
20833;DHT22;56075;51.264;7.150;2022-10-17T16:30:42;18.70;99.90
20833;DHT22;56075;51.264;7.150;2022-10-17T16:33:15;18.40;99.90
20833;DHT22;56075;51.264;7.150;2022-10-17T16:35:46;18.50;99.90
20833;DHT22;56075;51.264;7.150;2022-10-17T16:38:19;18.60;99.90
20833;DHT22;56075;51.264;7.150;2022-10-17T16:40:50;19.50;99.90
20833;DHT22;56075;51.264;7.150;2022-10-17T16:43:21;20.00;99.90
20833;DHT22;56075;51.264;7.150;2022-10-17T16:45:52;17.90;99.90
20833;DHT22;56075;51.264;7.150;2022-10-17T16:48:23;18.00;99.90
20833;DHT22;56075;51.264;7.150;2022-10-17T16:50:54;17.80;99.90
20833;DHT22;56075;51.264;7.150;2022-10-17T16:53:25;17.60;99.90
20833;DHT22;56075;51.264;7.150;2022-10-17T16:56:02;18.80;99.90
20833;DHT22;56075;51.264;7.150;2022-10-17T16:58:33;17.70;99.90
20833;DHT22;56075;51.264;7.150;2022-10-17T17:01:12;19.20;99.90
20833;DHT22;56075;51.264;7.150;2022-10-17T17:03:45;17.40;99.90
20833;DHT22;56075;51.264;7.150;2022-10-17T17:06:19;19.40;99.90
20833;DHT22;56075;51.264;7.150;2022-10-17T17:08:51;17.50;99.90
20833;DHT22;56075;51.264;7.150;2022-10-17T17:11:25;17.60;99.90
20833;DHT22;56075;51.264;7.150;2022-10-17T17:13:57;17.90;99.90
20833;DHT22;56075;51.264;7.150;2022-10-17T17:16:30;20.10;99.90
20833;DHT22;56075;51.264;7.150;2022-10-17T17:19:07;18.60;99.90
20833;DHT22;56075;51.264;7.150;2022-10-17T17:21:38;19.50;99.90
20833;DHT22;56075;51.264;7.150;2022-10-17T17:24:09;17.40;99.90
20833;DHT22;56075;51.264;7.150;2022-10-17T17:26:40;18.10;99.90
20833;DHT22;56075;51.264;7.150;2022-10-17T17:29:12;17.50;99.90
20833;DHT22;56075;51.264;7.150;2022-10-17T17:31:43;17.40;99.90
20833;DHT22;56075;51.264;7.150;2022-10-17T17:34:14;17.30;99.90
20833;DHT22;56075;51.264;7.150;2022-10-17T17:36:46;17.20;99.90
20833;DHT22;56075;51.264;7.150;2022-10-17T17:39:17;17.20;99.90
20833;DHT22;56075;51.264;7.150;2022-10-17T17:41:48;17.40;99.90
20833;DHT22;56075;51.264;7.150;2022-10-17T17:44:19;17.30;99.90
20833;DHT22;56075;51.264;7.150;2022-10-17T17:46:50;18.40;99.90
20833;DHT22;56075;51.264;7.150;2022-10-17T17:49:21;19.30;99.90
20833;DHT22;56075;51.264;7.150;2022-10-17T17:51:53;19.20;99.90
20833;DHT22;56075;51.264;7.150;2022-10-17T17:54:24;18.80;99.90
20833;DHT22;56075;51.264;7.150;2022-10-17T17:56:55;17.20;99.90
20833;DHT22;56075;51.264;7.150;2022-10-17T17:59:26;19.10;99.90
20833;DHT22;56075;51.264;7.150;2022-10-17T18:01:57;17.00;99.90
20833;DHT22;56075;51.264;7.150;2022-10-17T18:04:29;18.70;99.90